sensor_id;sensor_type;location;lat;lon;timestamp;pressure;altitude;pressure_sealevel;temperature;humidity
77027;BME280;65956;52.986;17.490;2024-01-30T00:00:32;101752.48;;;0.99;94.81
77027;BME280;65956;52.986;17.490;2024-01-30T00:03:18;101751.51;;;0.95;94.75
77027;BME280;65956;52.986;17.490;2024-01-30T00:05:44;101751.33;;;0.93;94.89
77027;BME280;65956;52.986;17.490;2024-01-30T00:08:11;101751.21;;;0.93;95.03
77027;BME280;65956;52.986;17.490;2024-01-30T00:10:37;101751.28;;;0.95;95.19
77027;BME280;65956;52.986;17.490;2024-01-30T00:13:03;101755.06;;;0.99;95.11
77027;BME280;65956;52.986;17.490;2024-01-30T00:15:29;101757.54;;;1.02;95.04
77027;BME280;65956;52.986;17.490;2024-01-30T00:17:56;101757.27;;;1.02;94.78
77027;BME280;65956;52.986;17.490;2024-01-30T00:20:22;101758.75;;;1.03;94.66
77027;BME280;65956;52.986;17.490;2024-01-30T00:22:49;101755.19;;;1.03;94.65
77027;BME280;65956;52.986;17.490;2024-01-30T00:25:15;101757.83;;;1.04;94.52
77027;BME280;65956;52.986;17.490;2024-01-30T00:27:41;101754.13;;;1.05;94.48
77027;BME280;65956;52.986;17.490;2024-01-30T00:30:08;101749.25;;;1.06;94.33
77027;BME280;65956;52.986;17.490;2024-01-30T00:32:34;101749.05;;;1.08;94.19
77027;BME280;65956;52.986;17.490;2024-01-30T00:35:00;101749.14;;;1.10;94.15
77027;BME280;65956;52.986;17.490;2024-01-30T00:37:26;101750.07;;;1.10;93.97
77027;BME280;65956;52.986;17.490;2024-01-30T00:39:52;101750.56;;;1.10;93.88
77027;BME280;65956;52.986;17.490;2024-01-30T00:42:19;101751.02;;;1.11;93.90
77027;BME280;65956;52.986;17.490;2024-01-30T00:44:45;101756.40;;;1.12;93.74
77027;BME280;65956;52.986;17.490;2024-01-30T00:47:11;101755.24;;;1.13;93.58
77027;BME280;65956;52.986;17.490;2024-01-30T00:49:37;101750.14;;;1.13;93.49
77027;BME280;65956;52.986;17.490;2024-01-30T00:52:04;101752.45;;;1.10;93.54
77027;BME280;65956;52.986;17.490;2024-01-30T00:54:30;101749.86;;;1.07;93.69
77027;BME280;65956;52.986;17.490;2024-01-30T00:56:56;101755.29;;;1.05;93.70
77027;BME280;65956;52.986;17.490;2024-01-30T00:59:22;101755.52;;;1.02;93.67
77027;BME280;65956;52.986;17.490;2024-01-30T01:01:49;101754.58;;;0.98;93.79
77027;BME280;65956;52.986;17.490;2024-01-30T01:04:15;101754.42;;;0.95;93.85
77027;BME280;65956;52.986;17.490;2024-01-30T01:06:41;101752.65;;;0.94;93.97
77027;BME280;65956;52.986;17.490;2024-01-30T01:09:13;101750.55;;;0.92;93.92
77027;BME280;65956;52.986;17.490;2024-01-30T01:11:39;101748.36;;;0.88;93.95
77027;BME280;65956;52.986;17.490;2024-01-30T01:14:05;101749.13;;;0.83;93.90
77027;BME280;65956;52.986;17.490;2024-01-30T01:16:32;101748.80;;;0.81;94.14
77027;BME280;65956;52.986;17.490;2024-01-30T01:18:59;101751.27;;;0.80;94.10
77027;BME280;65956;52.986;17.490;2024-01-30T01:21:26;101751.04;;;0.80;94.13
77027;BME280;65956;52.986;17.490;2024-01-30T01:23:52;101751.55;;;0.81;94.23
77027;BME280;65956;52.986;17.490;2024-01-30T01:26:19;101755.42;;;0.80;94.05
77027;BME280;65956;52.986;17.490;2024-01-30T01:28:45;101755.47;;;0.78;94.03
77027;BME280;65956;52.986;17.490;2024-01-30T01:31:11;101751.09;;;0.78;94.03
77027;BME280;65956;52.986;17.490;2024-01-30T01:33:37;101747.20;;;0.76;94.13
77027;BME280;65956;52.986;17.490;2024-01-30T01:36:04;101751.80;;;0.74;94.13
77027;BME280;65956;52.986;17.490;2024-01-30T01:38:30;101745.44;;;0.72;94.18
77027;BME280;65956;52.986;17.490;2024-01-30T01:40:56;101745.37;;;0.70;94.17
77027;BME280;65956;52.986;17.490;2024-01-30T01:43:22;101742.73;;;0.67;94.26
77027;BME280;65956;52.986;17.490;2024-01-30T01:45:48;101741.64;;;0.66;94.15
77027;BME280;65956;52.986;17.490;2024-01-30T01:48:15;101743.44;;;0.63;94.19
77027;BME280;65956;52.986;17.490;2024-01-30T01:50:42;101740.10;;;0.63;94.16
77027;BME280;65956;52.986;17.490;2024-01-30T01:53:08;101741.04;;;0.64;94.11
77027;BME280;65956;52.986;17.490;2024-01-30T01:55:35;101739.34;;;0.67;94.06
77027;BME280;65956;52.986;17.490;2024-01-30T01:58:01;101738.98;;;0.66;93.97
77027;BME280;65956;52.986;17.490;2024-01-30T02:00:28;101744.06;;;0.65;93.96
77027;BME280;65956;52.986;17.490;2024-01-30T02:02:54;101740.86;;;0.65;93.91
77027;BME280;65956;52.986;17.490;2024-01-30T02:05:21;101740.45;;;0.65;93.86
77027;BME280;65956;52.986;17.490;2024-01-30T02:07:47;101739.56;;;0.64;93.77
77027;BME280;65956;52.986;17.490;2024-01-30T02:10:14;101744.50;;;0.65;93.79
77027;BME280;65956;52.986;17.490;2024-01-30T02:12:40;101742.84;;;0.64;93.75
77027;BME280;65956;52.986;17.490;2024-01-30T02:15:06;101736.92;;;0.64;93.67
77027;BME280;65956;52.986;17.490;2024-01-30T02:17:33;101734.56;;;0.65;93.69
77027;BME280;65956;52.986;17.490;2024-01-30T02:20:00;101734.01;;;0.66;93.60
77027;BME280;65956;52.986;17.490;2024-01-30T02:22:26;101734.61;;;0.67;93.55
77027;BME280;65956;52.986;17.490;2024-01-30T02:24:52;101732.95;;;0.66;93.44
77027;BME280;65956;52.986;17.490;2024-01-30T02:27:19;101727.59;;;0.67;93.39
77027;BME280;65956;52.986;17.490;2024-01-30T02:29:45;101724.30;;;0.66;93.40
77027;BME280;65956;52.986;17.490;2024-01-30T02:32:12;101724.14;;;0.64;93.41
77027;BME280;65956;52.986;17.490;2024-01-30T02:34:38;101720.62;;;0.61;93.42
77027;BME280;65956;52.986;17.490;2024-01-30T02:37:04;101715.02;;;0.57;93.48
77027;BME280;65956;52.986;17.490;2024-01-30T02:39:30;101714.18;;;0.54;93.59
77027;BME280;65956;52.986;17.490;2024-01-30T02:41:56;101706.12;;;0.52;93.61
77027;BME280;65956;52.986;17.490;2024-01-30T02:44:23;101702.72;;;0.51;93.69
77027;BME280;65956;52.986;17.490;2024-01-30T02:46:49;101702.23;;;0.51;93.68
77027;BME280;65956;52.986;17.490;2024-01-30T02:49:15;101705.02;;;0.48;93.69
77027;BME280;65956;52.986;17.490;2024-01-30T02:51:41;101709.11;;;0.45;93.70
77027;BME280;65956;52.986;17.490;2024-01-30T02:54:07;101706.41;;;0.40;93.86
77027;BME280;65956;52.986;17.490;2024-01-30T02:56:35;101709.01;;;0.38;94.10
77027;BME280;65956;52.986;17.490;2024-01-30T02:59:01;101710.23;;;0.35;94.23
77027;BME280;65956;52.986;17.490;2024-01-30T03:01:27;101711.29;;;0.33;94.37
77027;BME280;65956;52.986;17.490;2024-01-30T03:03:53;101707.34;;;0.33;94.54
77027;BME280;65956;52.986;17.490;2024-01-30T03:06:19;101705.26;;;0.34;94.39
77027;BME280;65956;52.986;17.490;2024-01-30T03:08:46;101706.02;;;0.34;94.35
77027;BME280;65956;52.986;17.490;2024-01-30T03:11:12;101709.31;;;0.33;94.19
77027;BME280;65956;52.986;17.490;2024-01-30T03:13:38;101707.23;;;0.33;94.24
77027;BME280;65956;52.986;17.490;2024-01-30T03:16:05;101709.58;;;0.36;94.00
77027;BME280;65956;52.986;17.490;2024-01-30T03:18:31;101711.95;;;0.37;93.94
77027;BME280;65956;52.986;17.490;2024-01-30T03:20:57;101710.09;;;0.37;93.87
77027;BME280;65956;52.986;17.490;2024-01-30T03:23:23;101713.98;;;0.36;93.85
77027;BME280;65956;52.986;17.490;2024-01-30T03:25:50;101710.02;;;0.34;93.83
77027;BME280;65956;52.986;17.490;2024-01-30T03:28:16;101712.16;;;0.34;93.73
77027;BME280;65956;52.986;17.490;2024-01-30T03:30:43;101713.48;;;0.33;93.79
77027;BME280;65956;52.986;17.490;2024-01-30T03:33:09;101710.73;;;0.34;93.91
77027;BME280;65956;52.986;17.490;2024-01-30T03:35:35;101714.13;;;0.35;94.00
77027;BME280;65956;52.986;17.490;2024-01-30T03:38:01;101716.05;;;0.36;93.76
77027;BME280;65956;52.986;17.490;2024-01-30T03:40:27;101712.84;;;0.39;93.70
77027;BME280;65956;52.986;17.490;2024-01-30T03:42:53;101708.52;;;0.42;93.59
77027;BME280;65956;52.986;17.490;2024-01-30T03:45:20;101703.03;;;0.45;93.40
77027;BME280;65956;52.986;17.490;2024-01-30T03:47:46;101700.02;;;0.49;93.12
77027;BME280;65956;52.986;17.490;2024-01-30T03:50:12;101701.57;;;0.51;92.93
77027;BME280;65956;52.986;17.490;2024-01-30T03:52:38;101703.27;;;0.54;92.82
77027;BME280;65956;52.986;17.490;2024-01-30T03:55:05;101706.52;;;0.58;92.62
77027;BME280;65956;52.986;17.490;2024-01-30T03:57:31;101705.20;;;0.59;92.56
77027;BME280;65956;52.986;17.490;2024-01-30T03:59:57;101703.61;;;0.59;92.41
77027;BME280;65956;52.986;17.490;2024-01-30T04:02:23;101707.39;;;0.59;92.42
77027;BME280;65956;52.986;17.490;2024-01-30T04:04:49;101704.82;;;0.60;92.38
77027;BME280;65956;52.986;17.490;2024-01-30T04:07:16;101706.14;;;0.60;92.22
77027;BME280;65956;52.986;17.490;2024-01-30T04:09:42;101705.19;;;0.62;92.14
77027;BME280;65956;52.986;17.490;2024-01-30T04:12:08;101711.08;;;0.63;92.16
77027;BME280;65956;52.986;17.490;2024-01-30T04:14:34;101711.19;;;0.64;92.01
77027;BME280;65956;52.986;17.490;2024-01-30T04:17:01;101714.55;;;0.64;92.00
77027;BME280;65956;52.986;17.490;2024-01-30T04:19:27;101713.39;;;0.64;92.01
77027;BME280;65956;52.986;17.490;2024-01-30T04:21:53;101711.34;;;0.62;92.10
77027;BME280;65956;52.986;17.490;2024-01-30T04:24:19;101710.95;;;0.60;92.32
77027;BME280;65956;52.986;17.490;2024-01-30T04:26:58;101710.07;;;0.58;92.31
77027;BME280;65956;52.986;17.490;2024-01-30T04:29:24;101704.53;;;0.55;92.51
77027;BME280;65956;52.986;17.490;2024-01-30T04:31:50;101704.21;;;0.53;92.61
77027;BME280;65956;52.986;17.490;2024-01-30T04:34:16;101706.95;;;0.52;92.66
77027;BME280;65956;52.986;17.490;2024-01-30T04:36:44;101706.44;;;0.50;92.79
77027;BME280;65956;52.986;17.490;2024-01-30T04:39:11;101713.45;;;0.46;92.85
77027;BME280;65956;52.986;17.490;2024-01-30T04:41:38;101714.70;;;0.44;92.86
77027;BME280;65956;52.986;17.490;2024-01-30T04:44:04;101714.55;;;0.46;92.85
77027;BME280;65956;52.986;17.490;2024-01-30T04:46:30;101715.37;;;0.49;92.83
77027;BME280;65956;52.986;17.490;2024-01-30T04:48:57;101716.98;;;0.52;92.70
77027;BME280;65956;52.986;17.490;2024-01-30T04:51:23;101717.86;;;0.55;92.52
77027;BME280;65956;52.986;17.490;2024-01-30T04:53:49;101721.70;;;0.57;92.47
77027;BME280;65956;52.986;17.490;2024-01-30T04:56:15;101718.59;;;0.56;92.39
77027;BME280;65956;52.986;17.490;2024-01-30T04:58:41;101714.85;;;0.56;92.35
77027;BME280;65956;52.986;17.490;2024-01-30T05:01:07;101713.41;;;0.54;92.38
77027;BME280;65956;52.986;17.490;2024-01-30T05:03:34;101709.42;;;0.52;92.47
77027;BME280;65956;52.986;17.490;2024-01-30T05:06:01;101709.42;;;0.51;92.64
77027;BME280;65956;52.986;17.490;2024-01-30T05:08:27;101706.95;;;0.51;92.64
77027;BME280;65956;52.986;17.490;2024-01-30T05:10:53;101707.55;;;0.52;92.63
77027;BME280;65956;52.986;17.490;2024-01-30T05:13:19;101711.33;;;0.51;92.58
77027;BME280;65956;52.986;17.490;2024-01-30T05:15:45;101710.52;;;0.51;92.64
77027;BME280;65956;52.986;17.490;2024-01-30T05:18:11;101712.70;;;0.51;92.62
77027;BME280;65956;52.986;17.490;2024-01-30T05:20:37;101709.30;;;0.52;92.64
77027;BME280;65956;52.986;17.490;2024-01-30T05:23:03;101711.29;;;0.52;92.65
77027;BME280;65956;52.986;17.490;2024-01-30T05:25:29;101703.38;;;0.52;92.48
77027;BME280;65956;52.986;17.490;2024-01-30T05:27:55;101706.88;;;0.52;92.47
77027;BME280;65956;52.986;17.490;2024-01-30T05:30:21;101705.30;;;0.51;92.59
77027;BME280;65956;52.986;17.490;2024-01-30T05:32:48;101705.61;;;0.50;92.61
77027;BME280;65956;52.986;17.490;2024-01-30T05:35:15;101700.67;;;0.49;92.57
77027;BME280;65956;52.986;17.490;2024-01-30T05:37:42;101705.16;;;0.48;92.58
77027;BME280;65956;52.986;17.490;2024-01-30T05:40:08;101702.60;;;0.48;92.69
77027;BME280;65956;52.986;17.490;2024-01-30T05:42:34;101701.89;;;0.47;92.63
77027;BME280;65956;52.986;17.490;2024-01-30T05:45:00;101701.66;;;0.48;92.66
77027;BME280;65956;52.986;17.490;2024-01-30T05:47:27;101702.48;;;0.49;92.51
77027;BME280;65956;52.986;17.490;2024-01-30T05:49:53;101702.70;;;0.48;92.66
77027;BME280;65956;52.986;17.490;2024-01-30T05:52:19;101707.44;;;0.47;92.60
77027;BME280;65956;52.986;17.490;2024-01-30T05:54:45;101711.60;;;0.47;92.45
77027;BME280;65956;52.986;17.490;2024-01-30T05:57:11;101712.20;;;0.49;92.42
77027;BME280;65956;52.986;17.490;2024-01-30T05:59:38;101712.52;;;0.49;92.37
77027;BME280;65956;52.986;17.490;2024-01-30T06:02:04;101713.07;;;0.49;92.38
77027;BME280;65956;52.986;17.490;2024-01-30T06:04:30;101713.40;;;0.49;92.62
77027;BME280;65956;52.986;17.490;2024-01-30T06:06:56;101710.94;;;0.47;92.68
77027;BME280;65956;52.986;17.490;2024-01-30T06:09:22;101704.46;;;0.46;92.63
77027;BME280;65956;52.986;17.490;2024-01-30T06:11:48;101704.19;;;0.48;92.44
77027;BME280;65956;52.986;17.490;2024-01-30T06:14:14;101706.65;;;0.48;92.52
77027;BME280;65956;52.986;17.490;2024-01-30T06:16:41;101711.30;;;0.49;92.56
77027;BME280;65956;52.986;17.490;2024-01-30T06:19:07;101710.88;;;0.49;92.52
77027;BME280;65956;52.986;17.490;2024-01-30T06:21:33;101713.79;;;0.49;92.51
77027;BME280;65956;52.986;17.490;2024-01-30T06:24:02;101716.52;;;0.49;92.54
77027;BME280;65956;52.986;17.490;2024-01-30T06:26:28;101715.48;;;0.49;92.53
77027;BME280;65956;52.986;17.490;2024-01-30T06:28:55;101716.69;;;0.48;92.57
77027;BME280;65956;52.986;17.490;2024-01-30T06:31:21;101719.11;;;0.47;92.70
77027;BME280;65956;52.986;17.490;2024-01-30T06:33:47;101717.13;;;0.46;92.74
77027;BME280;65956;52.986;17.490;2024-01-30T06:36:14;101707.42;;;0.46;92.74
77027;BME280;65956;52.986;17.490;2024-01-30T06:38:41;101707.15;;;0.45;92.76
77027;BME280;65956;52.986;17.490;2024-01-30T06:41:07;101709.56;;;0.46;92.81
77027;BME280;65956;52.986;17.490;2024-01-30T06:43:33;101710.00;;;0.47;92.92
77027;BME280;65956;52.986;17.490;2024-01-30T06:45:59;101709.89;;;0.47;92.86
77027;BME280;65956;52.986;17.490;2024-01-30T06:48:25;101713.52;;;0.47;92.86
77027;BME280;65956;52.986;17.490;2024-01-30T06:50:54;101716.92;;;0.47;92.83
77027;BME280;65956;52.986;17.490;2024-01-30T06:53:20;101719.16;;;0.48;92.87
77027;BME280;65956;52.986;17.490;2024-01-30T06:55:47;101722.45;;;0.48;92.99
77027;BME280;65956;52.986;17.490;2024-01-30T06:58:13;101720.05;;;0.47;92.96
77027;BME280;65956;52.986;17.490;2024-01-30T07:00:39;101720.25;;;0.48;93.01
77027;BME280;65956;52.986;17.490;2024-01-30T07:03:05;101723.27;;;0.48;93.05
77027;BME280;65956;52.986;17.490;2024-01-30T07:05:32;101725.80;;;0.49;93.20
77027;BME280;65956;52.986;17.490;2024-01-30T07:07:58;101723.22;;;0.50;92.96
77027;BME280;65956;52.986;17.490;2024-01-30T07:10:25;101724.88;;;0.51;93.01
77027;BME280;65956;52.986;17.490;2024-01-30T07:12:51;101722.20;;;0.51;93.11
77027;BME280;65956;52.986;17.490;2024-01-30T07:15:17;101722.14;;;0.53;93.10
77027;BME280;65956;52.986;17.490;2024-01-30T07:17:46;101720.28;;;0.55;93.10
77027;BME280;65956;52.986;17.490;2024-01-30T07:20:12;101718.73;;;0.57;93.10
77027;BME280;65956;52.986;17.490;2024-01-30T07:22:38;101717.71;;;0.60;92.79
77027;BME280;65956;52.986;17.490;2024-01-30T07:25:05;101718.70;;;0.64;92.70
77027;BME280;65956;52.986;17.490;2024-01-30T07:27:31;101722.77;;;0.67;92.53
77027;BME280;65956;52.986;17.490;2024-01-30T07:29:57;101722.99;;;0.71;92.55
77027;BME280;65956;52.986;17.490;2024-01-30T07:32:23;101726.06;;;0.75;92.40
77027;BME280;65956;52.986;17.490;2024-01-30T07:34:50;101727.66;;;0.80;92.40
77027;BME280;65956;52.986;17.490;2024-01-30T07:37:16;101732.33;;;0.84;92.15
77027;BME280;65956;52.986;17.490;2024-01-30T07:39:42;101737.17;;;0.89;92.01
77027;BME280;65956;52.986;17.490;2024-01-30T07:42:08;101731.70;;;0.92;91.70
77027;BME280;65956;52.986;17.490;2024-01-30T07:44:34;101733.12;;;0.98;91.73
77027;BME280;65956;52.986;17.490;2024-01-30T07:47:01;101735.36;;;1.01;91.47
77027;BME280;65956;52.986;17.490;2024-01-30T07:49:28;101738.23;;;1.07;91.32
77027;BME280;65956;52.986;17.490;2024-01-30T07:51:55;101738.61;;;1.12;91.11
77027;BME280;65956;52.986;17.490;2024-01-30T07:54:21;101734.27;;;1.15;90.90
77027;BME280;65956;52.986;17.490;2024-01-30T07:56:47;101734.05;;;1.18;90.74
77027;BME280;65956;52.986;17.490;2024-01-30T07:59:13;101734.92;;;1.23;90.45
77027;BME280;65956;52.986;17.490;2024-01-30T08:01:39;101738.77;;;1.29;90.37
77027;BME280;65956;52.986;17.490;2024-01-30T08:04:05;101741.45;;;1.36;90.06
77027;BME280;65956;52.986;17.490;2024-01-30T08:06:32;101742.88;;;1.44;89.90
77027;BME280;65956;52.986;17.490;2024-01-30T08:08:58;101740.73;;;1.48;89.83
77027;BME280;65956;52.986;17.490;2024-01-30T08:11:25;101731.44;;;1.53;89.35
77027;BME280;65956;52.986;17.490;2024-01-30T08:13:52;101733.95;;;1.58;89.37
77027;BME280;65956;52.986;17.490;2024-01-30T08:16:19;101733.27;;;1.64;89.14
77027;BME280;65956;52.986;17.490;2024-01-30T08:18:45;101728.43;;;1.70;88.99
77027;BME280;65956;52.986;17.490;2024-01-30T08:21:11;101723.59;;;1.76;88.61
77027;BME280;65956;52.986;17.490;2024-01-30T08:23:40;101725.59;;;1.83;88.21
77027;BME280;65956;52.986;17.490;2024-01-30T08:26:06;101730.67;;;1.92;88.35
77027;BME280;65956;52.986;17.490;2024-01-30T08:28:32;101733.27;;;2.03;88.30
77027;BME280;65956;52.986;17.490;2024-01-30T08:30:59;101736.10;;;2.12;87.83
77027;BME280;65956;52.986;17.490;2024-01-30T08:33:25;101736.39;;;2.20;87.95
77027;BME280;65956;52.986;17.490;2024-01-30T08:35:51;101734.48;;;2.30;87.64
77027;BME280;65956;52.986;17.490;2024-01-30T08:38:17;101731.76;;;2.37;86.42
77027;BME280;65956;52.986;17.490;2024-01-30T08:40:43;101729.17;;;2.43;86.26
77027;BME280;65956;52.986;17.490;2024-01-30T08:43:09;101731.20;;;2.48;85.70
77027;BME280;65956;52.986;17.490;2024-01-30T08:45:36;101731.11;;;2.55;85.61
77027;BME280;65956;52.986;17.490;2024-01-30T08:48:02;101729.75;;;2.60;85.23
77027;BME280;65956;52.986;17.490;2024-01-30T08:50:28;101729.70;;;2.68;85.26
77027;BME280;65956;52.986;17.490;2024-01-30T08:52:55;101731.80;;;2.76;85.16
77027;BME280;65956;52.986;17.490;2024-01-30T08:55:22;101734.45;;;2.84;85.23
77027;BME280;65956;52.986;17.490;2024-01-30T08:57:49;101732.39;;;2.93;85.32
77027;BME280;65956;52.986;17.490;2024-01-30T09:00:15;101729.21;;;3.04;85.20
77027;BME280;65956;52.986;17.490;2024-01-30T09:02:42;101727.45;;;3.11;84.93
77027;BME280;65956;52.986;17.490;2024-01-30T09:05:08;101730.60;;;3.18;84.26
77027;BME280;65956;52.986;17.490;2024-01-30T09:07:34;101723.77;;;3.24;84.06
77027;BME280;65956;52.986;17.490;2024-01-30T09:10:01;101722.24;;;3.29;83.35
77027;BME280;65956;52.986;17.490;2024-01-30T09:12:27;101723.12;;;3.35;83.35
77027;BME280;65956;52.986;17.490;2024-01-30T09:14:53;101724.15;;;3.43;84.01
77027;BME280;65956;52.986;17.490;2024-01-30T09:45:38;101703.84;;;3.81;79.99
77027;BME280;65956;52.986;17.490;2024-01-30T09:48:06;101704.40;;;3.85;80.08
77027;BME280;65956;52.986;17.490;2024-01-30T09:50:34;101699.23;;;3.88;80.67
77027;BME280;65956;52.986;17.490;2024-01-30T09:53:02;101695.86;;;3.94;80.40
77027;BME280;65956;52.986;17.490;2024-01-30T09:55:28;101689.58;;;3.95;79.44
77027;BME280;65956;52.986;17.490;2024-01-30T09:57:54;101687.58;;;3.95;79.68
77027;BME280;65956;52.986;17.490;2024-01-30T10:00:21;101681.16;;;4.00;80.21
77027;BME280;65956;52.986;17.490;2024-01-30T10:02:52;101681.06;;;4.04;80.12
77027;BME280;65956;52.986;17.490;2024-01-30T10:05:19;101681.28;;;4.04;79.73
77027;BME280;65956;52.986;17.490;2024-01-30T10:07:55;101674.46;;;4.07;80.41
77027;BME280;65956;52.986;17.490;2024-01-30T10:10:22;101673.27;;;4.13;80.26
77027;BME280;65956;52.986;17.490;2024-01-30T10:12:49;101672.29;;;4.17;80.45
77027;BME280;65956;52.986;17.490;2024-01-30T10:15:17;101673.63;;;4.24;80.41
77027;BME280;65956;52.986;17.490;2024-01-30T10:17:44;101670.29;;;4.26;79.44
77027;BME280;65956;52.986;17.490;2024-01-30T10:20:11;101672.92;;;4.27;79.41
77027;BME280;65956;52.986;17.490;2024-01-30T10:22:37;101666.81;;;4.30;79.45
77027;BME280;65956;52.986;17.490;2024-01-30T10:25:04;101669.25;;;4.36;79.49
77027;BME280;65956;52.986;17.490;2024-01-30T10:27:30;101674.38;;;4.41;78.95
77027;BME280;65956;52.986;17.490;2024-01-30T10:29:57;101673.48;;;4.46;78.44
77027;BME280;65956;52.986;17.490;2024-01-30T10:32:23;101669.71;;;4.54;79.14
77027;BME280;65956;52.986;17.490;2024-01-30T10:34:51;101672.88;;;4.65;79.12
77027;BME280;65956;52.986;17.490;2024-01-30T10:37:18;101672.67;;;4.74;78.11
77027;BME280;65956;52.986;17.490;2024-01-30T10:39:46;101671.75;;;4.80;77.49
77027;BME280;65956;52.986;17.490;2024-01-30T10:45:07;101664.34;;;4.94;77.39
77027;BME280;65956;52.986;17.490;2024-01-30T10:47:35;101660.71;;;5.02;76.72
77027;BME280;65956;52.986;17.490;2024-01-30T10:50:02;101660.17;;;5.05;76.85
77027;BME280;65956;52.986;17.490;2024-01-30T10:52:32;101654.98;;;5.10;76.80
77027;BME280;65956;52.986;17.490;2024-01-30T10:54:59;101657.36;;;5.10;75.72
77027;BME280;65956;52.986;17.490;2024-01-30T10:57:26;101657.11;;;5.16;76.26
77027;BME280;65956;52.986;17.490;2024-01-30T10:59:58;101653.08;;;5.22;76.34
77027;BME280;65956;52.986;17.490;2024-01-30T11:02:25;101656.13;;;5.28;76.21
77027;BME280;65956;52.986;17.490;2024-01-30T11:04:57;101652.84;;;5.38;77.24
77027;BME280;65956;52.986;17.490;2024-01-30T11:07:25;101652.02;;;5.46;76.30
77027;BME280;65956;52.986;17.490;2024-01-30T11:09:53;101649.89;;;5.48;75.54
77027;BME280;65956;52.986;17.490;2024-01-30T11:12:27;101645.56;;;5.54;76.44
77027;BME280;65956;52.986;17.490;2024-01-30T11:15:11;101642.91;;;5.65;77.54
77027;BME280;65956;52.986;17.490;2024-01-30T11:17:45;101640.98;;;5.76;76.19
77027;BME280;65956;52.986;17.490;2024-01-30T11:20:15;101639.57;;;5.82;75.32
77027;BME280;65956;52.986;17.490;2024-01-30T11:22:44;101637.37;;;5.91;75.08
77027;BME280;65956;52.986;17.490;2024-01-30T11:25:19;101635.56;;;6.09;75.20
77027;BME280;65956;52.986;17.490;2024-01-30T11:27:46;101631.70;;;6.23;73.08
77027;BME280;65956;52.986;17.490;2024-01-30T11:30:25;101631.72;;;6.30;73.21
77027;BME280;65956;52.986;17.490;2024-01-30T11:33:10;101629.73;;;6.46;72.45
77027;BME280;65956;52.986;17.490;2024-01-30T11:35:41;101621.31;;;6.64;73.41
77027;BME280;65956;52.986;17.490;2024-01-30T11:38:09;101624.34;;;6.90;72.31
77027;BME280;65956;52.986;17.490;2024-01-30T11:40:37;101622.67;;;7.50;70.55
77027;BME280;65956;52.986;17.490;2024-01-30T11:43:05;101618.02;;;9.28;66.29
77027;BME280;65956;52.986;17.490;2024-01-30T11:45:32;101613.62;;;10.89;60.69
77027;BME280;65956;52.986;17.490;2024-01-30T11:47:59;101609.73;;;12.03;57.74
77027;BME280;65956;52.986;17.490;2024-01-30T11:50:32;101607.85;;;13.29;55.43
77027;BME280;65956;52.986;17.490;2024-01-30T11:53:02;101600.55;;;14.20;50.73
77027;BME280;65956;52.986;17.490;2024-01-30T11:55:29;101599.38;;;14.83;48.18
77027;BME280;65956;52.986;17.490;2024-01-30T11:57:59;101590.17;;;15.42;50.74
77027;BME280;65956;52.986;17.490;2024-01-30T12:00:25;101588.63;;;16.35;50.92
77027;BME280;65956;52.986;17.490;2024-01-30T12:02:53;101589.30;;;17.20;47.96
77027;BME280;65956;52.986;17.490;2024-01-30T12:05:22;101591.38;;;17.25;43.24
77027;BME280;65956;52.986;17.490;2024-01-30T12:07:51;101588.52;;;17.62;47.31
77027;BME280;65956;52.986;17.490;2024-01-30T12:10:17;101580.68;;;18.35;45.50
77027;BME280;65956;52.986;17.490;2024-01-30T12:12:49;101579.02;;;18.67;44.69
77027;BME280;65956;52.986;17.490;2024-01-30T12:15:16;101580.05;;;19.11;46.48
77027;BME280;65956;52.986;17.490;2024-01-30T12:17:43;101574.87;;;19.38;42.41
77027;BME280;65956;52.986;17.490;2024-01-30T12:20:14;101571.27;;;19.25;43.61
77027;BME280;65956;52.986;17.490;2024-01-30T12:22:43;101572.96;;;19.54;42.19
77027;BME280;65956;52.986;17.490;2024-01-30T12:25:11;101574.17;;;19.71;42.69
77027;BME280;65956;52.986;17.490;2024-01-30T12:27:38;101568.52;;;19.61;43.73
77027;BME280;65956;52.986;17.490;2024-01-30T12:30:08;101564.34;;;19.30;43.19
77027;BME280;65956;52.986;17.490;2024-01-30T12:32:40;101566.15;;;18.62;42.69
77027;BME280;65956;52.986;17.490;2024-01-30T12:35:18;101562.60;;;17.83;42.59
77027;BME280;65956;52.986;17.490;2024-01-30T12:37:45;101560.80;;;16.58;43.34
77027;BME280;65956;52.986;17.490;2024-01-30T12:40:13;101558.27;;;15.82;45.65
77027;BME280;65956;52.986;17.490;2024-01-30T12:42:41;101562.19;;;15.81;45.72
77027;BME280;65956;52.986;17.490;2024-01-30T12:45:13;101554.48;;;15.80;44.91
77027;BME280;65956;52.986;17.490;2024-01-30T12:47:41;101552.34;;;15.49;44.80
77027;BME280;65956;52.986;17.490;2024-01-30T12:50:07;101552.68;;;14.77;44.81
77027;BME280;65956;52.986;17.490;2024-01-30T12:52:35;101542.11;;;14.42;47.18
77027;BME280;65956;52.986;17.490;2024-01-30T12:55:01;101543.55;;;14.35;48.59
77027;BME280;65956;52.986;17.490;2024-01-30T12:57:30;101541.34;;;14.23;47.41
77027;BME280;65956;52.986;17.490;2024-01-30T12:59:56;101540.78;;;14.23;48.79
77027;BME280;65956;52.986;17.490;2024-01-30T13:02:22;101537.27;;;14.37;48.35
77027;BME280;65956;52.986;17.490;2024-01-30T13:04:49;101540.14;;;14.55;47.70
77027;BME280;65956;52.986;17.490;2024-01-30T13:07:15;101534.90;;;14.78;48.46
77027;BME280;65956;52.986;17.490;2024-01-30T13:09:41;101537.00;;;14.99;48.78
77027;BME280;65956;52.986;17.490;2024-01-30T13:12:08;101536.53;;;15.08;47.92
77027;BME280;65956;52.986;17.490;2024-01-30T13:14:34;101535.62;;;15.02;48.76
77027;BME280;65956;52.986;17.490;2024-01-30T13:17:00;101535.02;;;14.71;48.49